createdAt,value
2022-10-20T05:34:51.901Z,9.40
2022-10-20T05:37:18.853Z,9.30
2022-10-20T05:42:18.385Z,9.30
2022-10-20T05:44:45.523Z,9.30
2022-10-20T05:47:14.924Z,9.20
2022-10-20T05:49:41.890Z,9.20
2022-10-20T05:52:10.913Z,9.30
2022-10-20T05:54:40.843Z,9.20
2022-10-20T05:57:07.724Z,9.20
2022-10-20T05:59:34.684Z,9.20
2022-10-20T06:02:01.696Z,9.20
2022-10-20T06:04:28.632Z,9.20
2022-10-20T06:06:56.318Z,9.20
2022-10-20T06:09:25.770Z,9.30
2022-10-20T06:11:53.029Z,9.30
2022-10-20T06:14:22.456Z,9.20
2022-10-20T06:16:53.615Z,9.20
2022-10-20T06:19:21.105Z,9.20
2022-10-20T06:21:49.468Z,9.20
2022-10-20T06:24:21.838Z,9.20
2022-10-20T06:26:49.273Z,9.30
2022-10-20T06:29:21.294Z,9.30
2022-10-20T06:31:50.737Z,9.40
2022-10-20T06:34:23.268Z,9.40
2022-10-20T06:36:51.316Z,9.40
2022-10-20T06:39:22.729Z,9.40
2022-10-20T06:41:55.893Z,9.50
2022-10-20T06:44:25.567Z,9.60
2022-10-20T06:46:55.086Z,9.70
2022-10-20T06:49:22.186Z,9.70
2022-10-20T06:51:49.574Z,9.70
2022-10-20T06:54:17.262Z,9.70
2022-10-20T06:56:44.309Z,9.80
2022-10-20T06:59:11.466Z,9.90
2022-10-20T07:01:39.778Z,10.00
2022-10-20T07:04:10.377Z,10.00
2022-10-20T07:06:46.038Z,10.00
2022-10-20T07:09:18.343Z,10.00
2022-10-20T07:11:45.983Z,10.00
2022-10-20T07:14:14.087Z,9.90
2022-10-20T07:16:41.061Z,10.00
2022-10-20T07:19:10.382Z,10.10
2022-10-20T07:21:41.759Z,10.20
2022-10-20T07:24:12.143Z,10.30
2022-10-20T07:26:41.213Z,10.20
2022-10-20T07:29:08.956Z,10.30
2022-10-20T07:31:40.738Z,10.40
2022-10-20T07:34:27.055Z,10.40
2022-10-20T07:36:59.994Z,10.60
2022-10-20T07:39:29.927Z,10.80
2022-10-20T07:41:57.028Z,11.20
2022-10-20T07:44:26.511Z,11.40
2022-10-20T07:46:56.022Z,11.60
2022-10-20T07:52:12.221Z,11.70
2022-10-20T07:54:41.584Z,11.80
2022-10-20T07:57:08.413Z,12.10
2022-10-20T07:59:38.163Z,12.30
2022-10-20T08:02:07.279Z,12.40
2022-10-20T08:04:34.265Z,12.30
2022-10-20T08:07:01.253Z,12.40
2022-10-20T08:09:28.449Z,12.40
2022-10-20T08:11:56.119Z,12.40
2022-10-20T08:14:27.447Z,12.50
2022-10-20T08:16:58.577Z,12.60
2022-10-20T08:19:35.854Z,12.70
2022-10-20T08:22:05.187Z,12.80
2022-10-20T08:24:32.203Z,13.00
2022-10-20T08:26:59.180Z,13.20
2022-10-20T08:29:26.055Z,13.20
2022-10-20T08:31:52.941Z,13.40
2022-10-20T08:34:22.651Z,13.50
2022-10-20T08:36:51.878Z,13.50
2022-10-20T08:39:19.421Z,13.70
2022-10-20T08:44:44.056Z,13.80
2022-10-20T08:47:37.164Z,13.90
2022-10-20T08:50:07.638Z,14.10
2022-10-20T08:52:34.749Z,14.40
2022-10-20T08:55:05.047Z,14.60
2022-10-20T08:57:36.406Z,14.90
2022-10-20T09:00:23.378Z,15.20
2022-10-20T09:02:53.548Z,15.50
2022-10-20T09:05:28.166Z,15.70
2022-10-20T09:07:55.231Z,15.90
2022-10-20T09:10:32.662Z,16.10
2022-10-20T09:13:03.276Z,16.40
2022-10-20T09:15:30.773Z,16.50
2022-10-20T09:18:06.587Z,16.40
2022-10-20T09:20:52.606Z,16.50
2022-10-20T09:23:40.577Z,16.70
2022-10-20T09:26:30.514Z,17.00
2022-10-20T09:29:15.477Z,17.20
2022-10-20T09:31:52.081Z,17.20
2022-10-20T09:34:24.368Z,17.20
2022-10-20T09:37:07.795Z,17.30
2022-10-20T09:39:57.252Z,17.30
2022-10-20T09:42:34.439Z,17.20
2022-10-20T09:45:23.087Z,17.00
2022-10-20T09:47:56.418Z,17.20
2022-10-20T09:50:48.450Z,17.40
2022-10-20T09:53:25.372Z,17.40
2022-10-20T09:55:56.870Z,17.40
2022-10-20T09:58:31.580Z,17.70
2022-10-20T10:01:03.081Z,17.90
2022-10-20T10:03:40.144Z,18.00
2022-10-20T10:06:25.946Z,17.90
2022-10-20T10:08:52.939Z,18.20
2022-10-20T10:11:31.572Z,18.50
2022-10-20T10:13:58.610Z,18.70
2022-10-20T10:16:25.775Z,19.00
2022-10-20T10:19:03.155Z,19.10
2022-10-20T10:21:45.957Z,19.40
2022-10-20T10:24:46.510Z,19.60
2022-10-20T10:27:28.430Z,19.70
2022-10-20T10:30:16.570Z,19.60
2022-10-20T10:32:47.595Z,19.50
2022-10-20T10:35:23.244Z,19.40
2022-10-20T10:37:50.633Z,19.30
2022-10-20T10:40:42.099Z,18.80
2022-10-20T10:43:29.604Z,18.60
2022-10-20T10:46:16.741Z,18.70
2022-10-20T10:49:23.285Z,18.80
2022-10-20T10:52:14.766Z,18.80
2022-10-20T10:54:42.263Z,18.80
2022-10-20T10:57:15.764Z,19.00
2022-10-20T10:59:44.710Z,19.10
2022-10-20T11:02:39.996Z,19.10
2022-10-20T11:05:22.564Z,19.10
2022-10-20T11:08:12.064Z,19.10
2022-10-20T11:11:01.202Z,19.10
2022-10-20T11:13:54.900Z,19.20
2022-10-20T11:16:42.305Z,19.30
2022-10-20T11:19:51.901Z,19.20
2022-10-20T11:22:49.448Z,19.20
2022-10-20T11:25:38.777Z,19.10
2022-10-20T11:28:28.271Z,19.30
2022-10-20T11:31:03.319Z,19.40
2022-10-20T11:33:45.448Z,19.60
2022-10-20T11:36:25.887Z,19.70
2022-10-20T11:38:56.543Z,19.90
2022-10-20T11:41:50.350Z,19.90
2022-10-20T11:44:29.833Z,19.80
2022-10-20T11:47:02.959Z,19.50
2022-10-20T11:49:32.586Z,19.20
2022-10-20T11:52:24.671Z,18.90
2022-10-20T11:55:07.030Z,18.70
2022-10-20T11:58:01.229Z,18.60
2022-10-20T12:00:59.825Z,18.70
2022-10-20T12:03:36.396Z,18.70
2022-10-20T12:06:19.392Z,18.80
2022-10-20T12:09:06.089Z,18.90
2022-10-20T12:12:02.541Z,19.10
2022-10-20T12:14:41.121Z,19.30
2022-10-20T12:17:33.291Z,19.30
2022-10-20T12:20:22.064Z,19.30
2022-10-20T12:22:58.961Z,19.20
2022-10-20T12:25:26.004Z,19.00
2022-10-20T12:28:21.153Z,18.80
2022-10-20T12:31:06.917Z,18.70
2022-10-20T12:34:04.014Z,18.60
2022-10-20T12:36:39.521Z,18.40
2022-10-20T12:39:14.715Z,18.40
2022-10-20T12:42:05.157Z,18.30
2022-10-20T12:44:44.404Z,18.40
2022-10-20T12:47:20.055Z,18.40
2022-10-20T12:49:56.671Z,18.60
2022-10-20T12:52:28.631Z,18.70
2022-10-20T12:55:19.365Z,18.90
2022-10-20T12:57:47.446Z,19.00
2022-10-20T13:00:21.377Z,19.20
2022-10-20T13:02:51.095Z,19.30
2022-10-20T13:05:26.155Z,19.40
2022-10-20T13:07:52.992Z,19.40
2022-10-20T13:10:37.624Z,19.40
2022-10-20T13:13:04.545Z,19.30
2022-10-20T13:15:42.967Z,19.40
2022-10-20T13:18:21.068Z,19.50
2022-10-20T13:21:30.827Z,19.60
2022-10-20T13:24:06.296Z,19.60
2022-10-20T13:26:48.699Z,19.60
2022-10-20T13:29:38.426Z,19.60
2022-10-20T13:32:29.159Z,19.60
2022-10-20T13:35:02.409Z,19.50
2022-10-20T13:37:40.217Z,19.50
2022-10-20T13:40:28.861Z,19.50
2022-10-20T13:42:57.015Z,19.60
2022-10-20T13:45:51.016Z,19.60
2022-10-20T13:48:39.432Z,19.60
2022-10-20T13:51:21.133Z,19.50
2022-10-20T13:53:52.690Z,19.40
2022-10-20T13:56:51.472Z,19.30
2022-10-20T13:59:18.542Z,19.20
2022-10-20T14:01:46.690Z,19.20
2022-10-20T14:04:33.466Z,19.10
2022-10-20T14:07:13.399Z,18.90
2022-10-20T14:09:45.337Z,18.70
2022-10-20T14:12:23.640Z,18.60
2022-10-20T14:14:53.214Z,18.50
2022-10-20T14:17:23.027Z,18.40
2022-10-20T14:19:50.795Z,18.30
2022-10-20T14:22:23.796Z,18.20
2022-10-20T14:24:53.764Z,18.10
2022-10-20T14:27:32.081Z,18.00
2022-10-20T14:30:04.225Z,18.00
2022-10-20T14:32:39.540Z,18.00
2022-10-20T14:35:26.955Z,18.00
2022-10-20T14:38:00.026Z,18.00
2022-10-20T14:40:30.958Z,18.00
2022-10-20T14:43:01.536Z,18.00
2022-10-20T14:45:29.225Z,17.90
2022-10-20T14:48:01.015Z,17.90
2022-10-20T14:50:31.314Z,17.80
2022-10-20T14:53:15.757Z,17.80
2022-10-20T14:55:44.766Z,17.80
2022-10-20T14:58:29.476Z,17.80
2022-10-20T15:01:14.745Z,17.80
2022-10-20T15:03:46.395Z,17.80
2022-10-20T15:06:18.235Z,17.80
2022-10-20T15:08:57.658Z,17.70
2022-10-20T15:11:26.784Z,17.60
2022-10-20T15:13:55.868Z,17.50
2022-10-20T15:16:35.756Z,17.50
2022-10-20T15:19:28.288Z,17.40
2022-10-20T15:22:07.618Z,17.40
2022-10-20T15:24:37.451Z,17.30
2022-10-20T15:27:13.028Z,17.20
2022-10-20T15:29:44.398Z,17.20
2022-10-20T15:32:13.465Z,17.10
2022-10-20T15:34:40.793Z,17.00
2022-10-20T15:37:07.862Z,17.00
2022-10-20T15:39:35.798Z,16.90
2022-10-20T15:42:05.566Z,16.90
2022-10-20T15:44:33.036Z,16.80
2022-10-20T15:47:02.019Z,16.80
2022-10-20T15:49:31.105Z,16.70
2022-10-20T15:51:58.359Z,16.70
2022-10-20T15:54:25.308Z,16.60
2022-10-20T15:56:52.205Z,16.60
2022-10-20T15:59:21.336Z,16.60
2022-10-20T16:01:50.590Z,16.50
2022-10-20T16:04:19.828Z,16.50
2022-10-20T16:06:48.060Z,16.50
2022-10-20T16:09:16.231Z,16.50
2022-10-20T16:11:45.882Z,16.50
2022-10-20T16:14:13.376Z,16.40
2022-10-20T16:16:40.433Z,16.40
2022-10-20T16:19:08.202Z,16.30
2022-10-20T16:21:35.182Z,16.30
2022-10-20T16:24:02.379Z,16.30
2022-10-20T16:26:29.539Z,16.30
2022-10-20T16:28:59.683Z,16.30
2022-10-20T16:31:26.622Z,16.30
2022-10-20T16:34:00.022Z,16.30
2022-10-20T16:36:29.306Z,16.20
2022-10-20T16:38:57.231Z,16.20
2022-10-20T16:41:24.294Z,16.20
2022-10-20T16:43:51.335Z,16.20
2022-10-20T16:46:18.674Z,16.20
2022-10-20T16:48:48.776Z,16.10
2022-10-20T16:51:16.523Z,16.20
2022-10-20T16:53:46.296Z,16.20
2022-10-20T16:56:16.635Z,16.20
2022-10-20T16:58:47.034Z,16.20
2022-10-20T17:01:16.053Z,16.10
2022-10-20T17:03:46.069Z,16.10
2022-10-20T17:06:14.366Z,16.00
2022-10-20T17:08:42.257Z,15.90
2022-10-20T17:11:14.296Z,15.90
2022-10-20T17:13:41.973Z,15.80
2022-10-20T17:16:17.824Z,15.80
2022-10-20T17:18:49.896Z,15.80
2022-10-20T17:21:19.055Z,15.70
2022-10-20T17:23:46.711Z,15.70
2022-10-20T17:26:23.658Z,15.70
2022-10-20T17:28:57.361Z,15.60
2022-10-20T17:31:24.361Z,15.70
2022-10-20T17:33:51.640Z,15.60
2022-10-20T17:36:19.085Z,15.70
2022-10-20T17:38:48.149Z,15.80
2022-10-20T17:41:18.289Z,15.80
2022-10-20T17:43:45.215Z,15.70
2022-10-20T17:46:14.792Z,15.80
2022-10-20T17:48:46.621Z,15.70
2022-10-20T17:51:21.782Z,15.70
2022-10-20T17:53:52.834Z,15.80
2022-10-20T17:56:23.893Z,15.80
2022-10-20T17:58:51.732Z,15.70
2022-10-20T18:01:37.051Z,15.70
2022-10-20T18:04:16.561Z,15.60
2022-10-20T18:06:44.699Z,15.60
2022-10-20T18:09:16.644Z,15.60
2022-10-20T18:11:49.909Z,15.60
2022-10-20T18:14:19.598Z,15.60
2022-10-20T18:16:54.193Z,15.60
2022-10-20T18:19:23.636Z,15.50
2022-10-20T18:21:55.079Z,15.50
2022-10-20T18:24:22.124Z,15.50
2022-10-20T18:26:56.613Z,15.50
2022-10-20T18:29:26.059Z,15.40
2022-10-20T18:31:55.238Z,15.40
2022-10-20T18:34:22.274Z,15.40
2022-10-20T18:36:53.751Z,15.40
2022-10-20T18:39:21.048Z,15.50
2022-10-20T18:41:50.311Z,15.40
2022-10-20T18:44:20.953Z,15.40
2022-10-20T18:46:48.052Z,15.40
2022-10-20T18:49:20.563Z,15.40
2022-10-20T18:51:50.649Z,15.40
2022-10-20T18:54:19.055Z,15.40
2022-10-20T18:56:48.252Z,15.30
2022-10-20T18:59:17.249Z,15.30
2022-10-20T19:01:44.803Z,15.30
2022-10-20T19:04:13.052Z,15.30
2022-10-20T19:06:48.127Z,15.20
2022-10-20T19:09:21.991Z,15.20
2022-10-20T19:14:25.044Z,15.20
2022-10-20T19:16:54.137Z,15.30
2022-10-20T19:19:23.665Z,15.20
2022-10-20T19:21:50.808Z,15.20
2022-10-20T19:24:25.088Z,15.20
2022-10-20T19:27:21.357Z,15.10
2022-10-20T19:29:47.174Z,15.10
2022-10-20T19:32:18.211Z,15.10
2022-10-20T19:34:47.728Z,15.10
2022-10-20T19:37:14.674Z,15.10
2022-10-20T19:39:42.735Z,15.10
2022-10-20T19:42:12.267Z,15.10
2022-10-20T19:44:43.419Z,15.20
2022-10-20T19:47:12.922Z,15.20
2022-10-20T19:49:43.283Z,15.10
2022-10-20T19:52:13.008Z,15.10
2022-10-20T19:54:41.916Z,15.10
2022-10-20T19:57:11.422Z,15.10
2022-10-20T19:59:38.665Z,15.10
2022-10-20T20:02:07.830Z,15.10
2022-10-20T20:04:34.853Z,15.10
2022-10-20T20:07:04.511Z,15.10
2022-10-20T20:09:31.678Z,15.10
2022-10-20T20:11:58.795Z,15.10
2022-10-20T20:14:30.351Z,15.10
2022-10-20T20:16:59.563Z,15.10
2022-10-20T20:19:26.437Z,15.00
2022-10-20T20:21:55.877Z,15.00
2022-10-20T20:24:23.102Z,15.00
2022-10-20T20:26:50.151Z,15.00
2022-10-20T20:29:17.201Z,15.00
2022-10-20T20:31:51.279Z,14.90
2022-10-20T20:34:18.747Z,14.80
2022-10-20T20:36:45.846Z,14.80
2022-10-20T20:39:13.477Z,14.80
2022-10-20T20:41:43.967Z,14.80
2022-10-20T20:44:11.225Z,14.80
2022-10-20T20:46:38.111Z,14.90
2022-10-20T20:49:07.736Z,14.90
2022-10-20T20:51:34.852Z,14.90
2022-10-20T20:54:03.131Z,14.90
2022-10-20T20:56:30.529Z,14.90
2022-10-20T20:58:57.593Z,14.80
2022-10-20T21:01:27.710Z,14.80
2022-10-20T21:03:57.085Z,14.80
2022-10-20T21:06:33.752Z,14.80
2022-10-20T21:09:01.669Z,14.80
2022-10-20T21:11:28.925Z,14.70
2022-10-20T21:13:58.744Z,14.70
2022-10-20T21:16:34.362Z,14.70
2022-10-20T21:19:08.002Z,14.60
2022-10-20T21:21:37.569Z,14.50
2022-10-20T21:24:06.069Z,14.50
2022-10-20T21:26:33.379Z,14.40
2022-10-20T21:29:02.717Z,14.40
2022-10-20T21:31:30.617Z,14.30
2022-10-20T21:34:04.184Z,14.20
2022-10-20T21:36:35.529Z,14.10
2022-10-20T21:39:07.703Z,14.00
2022-10-20T21:41:36.308Z,14.00
2022-10-20T21:44:07.091Z,13.90
2022-10-20T21:46:36.995Z,14.00
2022-10-20T21:49:10.750Z,13.90
2022-10-20T21:51:42.510Z,13.90
2022-10-20T21:54:24.315Z,13.90
2022-10-20T21:56:54.101Z,13.90
2022-10-20T21:59:29.325Z,13.90
2022-10-20T22:02:00.953Z,13.90
2022-10-20T22:04:30.779Z,13.90
2022-10-20T22:07:00.512Z,13.90
2022-10-20T22:09:27.471Z,14.00
2022-10-20T22:11:58.984Z,14.10
2022-10-20T22:14:30.473Z,14.20
